Time;durP1;ratioP1;P1;durP2;ratioP2;P2;SDS_P1;SDS_P2;PMS_P1;PMS_P2;Temp;Humidity;BMP_temperature;BMP_pressure;BME280_temperature;BME280_humidity;BME280_pressure;Samples;Min_cycle;Max_cycle;Signal;HPM_P1;HPM_P2
2022/08/07 00:01:37;;;;;;;7.30;2.75;;;;;;;17.11;53.07;102133.66;5074229;28;20041;-60
2022/08/07 00:04:05;;;;;;;10.27;2.90;;;;;;;17.04;53.61;102133.44;5073824;28;20045;-60
2022/08/07 00:06:32;;;;;;;10.20;3.00;;;;;;;17.02;53.55;102131.94;5074691;28;20123;-61
2022/08/07 00:09:01;;;;;;;8.45;2.72;;;;;;;17.01;53.59;102132.97;5090585;28;20040;-60
2022/08/07 00:11:27;;;;;;;7.95;2.80;;;;;;;17.02;54.01;102135.47;5074863;28;20055;-60
2022/08/07 00:13:54;;;;;;;8.57;3.00;;;;;;;16.97;54.43;102134.28;5074666;28;20071;-61
2022/08/07 00:16:22;;;;;;;9.57;2.83;;;;;;;16.88;54.88;102128.03;5073387;28;20044;-60
2022/08/07 00:18:49;;;;;;;7.57;2.70;;;;;;;16.80;55.38;102131.50;5074615;28;20090;-61
2022/08/07 00:21:16;;;;;;;8.32;2.90;;;;;;;16.78;55.57;102125.47;5074554;28;20070;-61
2022/08/07 00:23:43;;;;;;;10.70;3.03;;;;;;;16.63;55.96;102122.56;5090387;28;20051;-61
2022/08/07 00:26:10;;;;;;;11.68;3.17;;;;;;;16.64;56.27;102123.41;5089406;28;20505;-61
2022/08/07 00:28:37;;;;;;;11.88;3.35;;;;;;;16.58;57.10;102119.53;5074269;28;20508;-61
2022/08/07 00:31:08;;;;;;;9.27;3.40;;;;;;;16.45;58.02;102113.78;5074256;28;20044;-61
2022/08/07 00:33:36;;;;;;;8.68;3.25;;;;;;;16.54;57.96;102111.97;5073832;28;20115;-61
2022/08/07 00:36:05;;;;;;;9.65;2.92;;;;;;;16.50;57.71;102112.28;5072929;28;20041;-61
2022/08/07 00:38:32;;;;;;;9.70;3.10;;;;;;;16.45;58.02;102113.78;5074305;28;20578;-61
2022/08/07 00:41:00;;;;;;;10.10;3.20;;;;;;;16.44;57.93;102109.41;5073942;28;20115;-61
2022/08/07 00:43:27;;;;;;;8.55;3.28;;;;;;;16.46;57.82;102112.75;5089519;28;20044;-61
2022/08/07 00:45:54;;;;;;;10.90;3.40;;;;;;;16.37;58.51;102103.00;5073921;28;20624;-61
2022/08/07 00:48:20;;;;;;;9.32;3.28;;;;;;;16.35;59.12;102113.88;5072856;28;20379;-61
2022/08/07 00:50:47;;;;;;;12.77;3.40;;;;;;;16.30;59.16;102103.66;5073576;28;20028;-61
2022/08/07 00:53:14;;;;;;;8.93;3.25;;;;;;;16.28;59.38;102111.00;5074096;28;20135;-61
2022/08/07 00:55:41;;;;;;;12.40;3.13;;;;;;;16.16;59.67;102100.72;5072544;28;20556;-61
2022/08/07 00:58:08;;;;;;;9.30;3.25;;;;;;;16.13;59.52;102099.19;5073739;28;20449;-61
2022/08/07 01:00:35;;;;;;;10.00;3.33;;;;;;;16.16;59.51;102103.41;5071696;28;20040;-62
2022/08/07 01:03:01;;;;;;;9.50;3.42;;;;;;;16.15;59.72;102099.84;5071786;28;20059;-61
2022/08/07 01:05:28;;;;;;;14.02;3.47;;;;;;;16.12;59.80;102095.69;5089101;28;20044;-61
2022/08/07 01:07:55;;;;;;;13.15;3.30;;;;;;;16.09;60.04;102092.47;5072697;28;20094;-61
2022/08/07 01:10:22;;;;;;;10.70;3.20;;;;;;;16.20;59.98;102088.69;5073378;28;20044;-61
2022/08/07 01:12:49;;;;;;;8.77;3.20;;;;;;;16.23;60.02;102083.03;5072219;28;20474;-61
2022/08/07 01:15:16;;;;;;;11.50;3.50;;;;;;;16.06;60.77;102082.94;5073918;28;20051;-61
2022/08/07 01:17:43;;;;;;;10.85;3.40;;;;;;;16.11;60.78;102083.28;5073430;28;20045;-60
2022/08/07 01:20:12;;;;;;;10.68;3.45;;;;;;;16.06;61.22;102085.59;5073095;28;20516;-60
2022/08/07 01:22:40;;;;;;;10.07;3.97;;;;;;;15.97;61.59;102083.88;5055592;28;20374;-60
2022/08/07 01:25:09;;;;;;;11.73;3.72;;;;;;;15.90;62.14;102077.47;5073278;28;20406;-61
2022/08/07 01:27:36;;;;;;;8.57;3.35;;;;;;;15.85;62.22;102079.78;5089309;28;20083;-61
2022/08/07 01:30:04;;;;;;;9.13;3.50;;;;;;;15.89;62.34;102075.78;5073533;28;20059;-61
2022/08/07 01:32:31;;;;;;;11.05;3.63;;;;;;;15.87;62.35;102083.13;5073013;28;20040;-61
2022/08/07 01:35:00;;;;;;;9.32;3.78;;;;;;;15.92;62.16;102080.81;5072045;28;20104;-61
2022/08/07 01:37:28;;;;;;;14.50;4.03;;;;;;;15.99;62.07;102081.03;5071748;28;20044;-62
2022/08/07 01:39:58;;;;;;;10.07;3.67;;;;;;;15.98;62.19;102074.84;5073210;28;20047;-62
2022/08/07 01:42:29;;;;;;;15.50;3.95;;;;;;;15.92;62.27;102076.31;5072040;28;20047;-61
2022/08/07 01:44:57;;;;;;;11.52;3.75;;;;;;;16.00;62.04;102074.69;5073513;28;20055;-61
2022/08/07 01:47:24;;;;;;;11.60;3.78;;;;;;;15.95;62.30;102075.13;5073106;28;20147;-62
2022/08/07 01:49:51;;;;;;;8.27;3.35;;;;;;;15.85;63.11;102071.75;5072089;28;20037;-63
2022/08/07 01:52:22;;;;;;;7.63;3.53;;;;;;;15.74;63.06;102065.63;5072816;28;20051;-62
2022/08/07 01:54:53;;;;;;;12.43;3.75;;;;;;;15.84;63.02;102070.88;5073105;28;20071;-61
2022/08/07 01:57:24;;;;;;;13.32;3.97;;;;;;;15.83;63.53;102063.88;5090236;28;20055;-61
2022/08/07 01:59:59;;;;;;;11.00;3.65;;;;;;;15.83;63.66;102063.88;5073238;28;20052;-61
2022/08/07 02:02:32;;;;;;;13.55;4.03;;;;;;;15.81;63.68;102071.22;5071802;28;20081;-61
2022/08/07 02:05:04;;;;;;;11.05;4.07;;;;;;;15.80;63.48;102063.34;5072242;28;20044;-61
2022/08/07 02:07:38;;;;;;;8.85;3.90;;;;;;;15.76;63.38;102070.84;5071997;28;20132;-61
2022/08/07 02:10:07;;;;;;;16.48;4.00;;;;;;;15.73;62.93;102065.75;5089018;28;20047;-60
2022/08/07 02:12:41;;;;;;;11.27;4.10;;;;;;;15.61;64.04;102064.31;5088366;28;20543;-60
2022/08/07 02:15:12;;;;;;;15.40;3.90;;;;;;;15.45;64.58;102070.41;5071654;28;20048;-60
2022/08/07 02:17:42;;;;;;;11.75;4.00;;;;;;;15.53;64.24;102071.31;5072721;28;20044;-61
2022/08/07 02:20:10;;;;;;;10.48;3.75;;;;;;;15.64;63.35;102069.38;5072695;28;20525;-60
2022/08/07 02:22:39;;;;;;;11.05;3.85;;;;;;;15.61;63.78;102065.19;5072437;28;20545;-60
2022/08/07 02:25:09;;;;;;;9.70;3.50;;;;;;;15.59;63.63;102061.81;5071514;28;20044;-61
2022/08/07 02:27:38;;;;;;;11.20;3.33;;;;;;;15.57;63.80;102057.59;5071090;28;20123;-61
2022/08/07 02:30:06;;;;;;;10.90;3.47;;;;;;;15.51;63.96;102061.75;5071589;28;20040;-61
2022/08/07 02:32:36;;;;;;;11.18;3.67;;;;;;;15.34;64.84;102060.78;5072524;28;20055;-61
2022/08/07 02:35:06;;;;;;;12.45;3.65;;;;;;;15.36;65.05;102062.28;5071887;28;20066;-61
2022/08/07 02:37:36;;;;;;;12.63;3.78;;;;;;;15.44;64.17;102058.84;5071501;28;20473;-61
2022/08/07 02:40:07;;;;;;;10.02;3.30;;;;;;;15.41;64.45;102063.66;5072346;28;20047;-61
2022/08/07 02:42:36;;;;;;;11.82;3.55;;;;;;;15.39;64.53;102054.94;5072265;28;20064;-61
2022/08/07 02:45:05;;;;;;;11.48;3.72;;;;;;;15.37;64.84;102065.78;5088435;28;20375;-61
2022/08/07 02:47:33;;;;;;;9.77;3.72;;;;;;;15.27;65.15;102063.22;5072927;28;20094;-61
2022/08/07 02:50:07;;;;;;;10.88;3.83;;;;;;;15.22;65.11;102060.16;5075114;28;20110;-60
2022/08/07 02:52:41;;;;;;;10.05;3.78;;;;;;;15.25;65.68;102057.19;5076022;28;20037;-61
2022/08/07 02:55:20;;;;;;;9.63;3.78;;;;;;;15.14;65.98;102060.09;5076159;28;20040;-61
2022/08/07 02:57:49;;;;;;;9.30;4.03;;;;;;;15.07;66.71;102059.00;5091676;28;20506;-61
2022/08/07 03:00:16;;;;;;;11.38;4.07;;;;;;;15.06;66.17;102060.84;5075630;28;20529;-61
2022/08/07 03:02:47;;;;;;;9.80;4.05;;;;;;;14.91;66.75;102060.50;5075536;28;20063;-61
2022/08/07 03:05:16;;;;;;;15.67;4.37;;;;;;;14.80;67.19;102062.56;5075119;28;20051;-61
2022/08/07 03:07:43;;;;;;;13.15;4.32;;;;;;;14.85;67.37;102058.44;5076161;28;20041;-61
2022/08/07 03:10:11;;;;;;;13.60;4.32;;;;;;;14.74;67.57;102066.66;5076344;28;20131;-61
2022/08/07 03:12:39;;;;;;;10.05;4.60;;;;;;;14.79;67.22;102064.41;5075619;28;20064;-61
2022/08/07 03:15:11;;;;;;;10.98;3.90;;;;;;;14.73;67.62;102059.63;5074270;28;20040;-61
2022/08/07 03:17:40;;;;;;;11.38;4.13;;;;;;;14.71;67.94;102057.09;5058300;28;20071;-61
2022/08/07 03:20:10;;;;;;;9.60;4.05;;;;;;;14.65;67.53;102057.72;5075924;28;20044;-60
2022/08/07 03:22:39;;;;;;;15.10;4.72;;;;;;;14.56;68.76;102064.75;5074550;28;20493;-60
2022/08/07 03:25:06;;;;;;;9.52;4.03;;;;;;;14.54;68.42;102064.06;5075588;28;20033;-61
2022/08/07 03:27:41;;;;;;;13.90;4.05;;;;;;;14.56;68.82;102067.41;5070382;28;20074;-61
2022/08/07 03:30:12;;;;;;;11.02;4.35;;;;;;;14.49;69.39;102068.16;5073635;28;20049;-61
2022/08/07 03:32:44;;;;;;;13.38;4.18;;;;;;;14.47;69.01;102068.31;5058170;28;20131;-61
2022/08/07 03:35:16;;;;;;;11.15;4.30;;;;;;;14.44;68.90;102063.25;5075553;28;20045;-61
2022/08/07 03:37:47;;;;;;;;;;;;;;;14.34;69.72;102057.97;5074540;28;20441;-60
2022/08/07 03:40:14;;;;;;;10.55;4.40;;;;;;;14.31;69.26;102052.06;5076276;28;19931;-61
2022/08/07 03:42:43;;;;;;;10.98;4.45;;;;;;;14.37;69.07;102054.16;5090236;28;20037;-61
2022/08/07 03:45:12;;;;;;;11.00;4.47;;;;;;;14.29;69.78;102054.88;5075421;28;20052;-61
2022/08/07 03:47:39;;;;;;;11.38;4.30;;;;;;;14.27;70.11;102050.69;5073658;28;20052;-61
2022/08/07 03:50:06;;;;;;;12.98;4.63;;;;;;;14.25;70.08;102050.84;5074061;28;20036;-61
2022/08/07 03:52:37;;;;;;;14.57;4.82;;;;;;;14.22;70.77;102051.13;5073598;28;20354;-61
2022/08/07 03:55:07;;;;;;;10.18;4.38;;;;;;;14.28;70.13;102047.88;5074303;28;20048;-61
2022/08/07 03:57:37;;;;;;;11.90;4.50;;;;;;;14.22;70.68;102051.13;5090229;28;20050;-61
2022/08/07 04:00:05;;;;;;;9.48;4.07;;;;;;;14.18;70.12;102053.25;5076008;28;20565;-61
2022/08/07 04:02:44;;;;;;;9.35;4.28;;;;;;;14.21;70.69;102049.47;5108711;28;20517;-61
2022/08/07 04:05:20;;;;;;;14.02;4.38;;;;;;;14.13;71.42;102046.66;5093402;28;20040;-61
2022/08/07 04:07:50;;;;;;;14.93;4.60;;;;;;;14.19;71.24;102046.94;5095016;28;20044;-61
2022/08/07 04:10:21;;;;;;;;;;;;;;;14.17;71.71;102048.91;5095386;28;20036;-61
2022/08/07 04:12:49;;;;;;;8.73;4.10;;;;;;;14.19;71.63;102052.28;5094973;28;19963;-61
2022/08/07 04:15:17;;;;;;;12.05;4.05;;;;;;;14.23;70.01;102041.31;5095038;28;20113;-61
2022/08/07 04:17:44;;;;;;;8.20;3.05;;;;;;;14.25;68.62;102045.50;5094848;28;20050;-61
2022/08/07 04:20:11;;;;;;;10.85;3.55;;;;;;;14.27;68.75;102050.69;5094811;28;20048;-60
2022/08/07 04:22:40;;;;;;;8.82;3.60;;;;;;;14.30;69.28;102045.06;5109968;28;20494;-61
2022/08/07 04:25:08;;;;;;;25.70;6.07;;;;;;;14.35;68.03;102050.78;5094546;28;20048;-61
2022/08/07 04:27:36;;;;;;;13.00;3.45;;;;;;;14.40;66.68;102048.53;5093709;28;20044;-61
2022/08/07 04:30:07;;;;;;;10.07;2.72;;;;;;;14.47;66.04;102052.28;5093323;28;20043;-61
2022/08/07 04:32:59;;;;;;;;;;;;;;;14.52;64.95;102063.38;5094902;28;20453;-61
2022/08/07 04:35:29;;;;;;;7.90;2.60;;;;;;;14.49;64.61;102055.66;5094248;28;19920;-60
2022/08/07 04:37:56;;;;;;;6.90;2.53;;;;;;;14.55;65.40;102063.09;5094777;28;20040;-60
2022/08/07 04:40:23;;;;;;;7.70;2.90;;;;;;;14.59;65.20;102067.16;5076799;28;20048;-60
2022/08/07 04:42:51;;;;;;;6.70;2.45;;;;;;;14.67;65.20;102076.25;5094037;28;20450;-60
2022/08/07 04:45:18;;;;;;;8.90;2.90;;;;;;;14.66;65.79;102067.41;5094196;28;20036;-60
2022/08/07 04:50:37;;;;;;;10.00;2.90;;;;;;;14.71;65.47;102069.63;5110757;27;20125;-60
2022/08/07 04:53:20;;;;;;;11.57;3.25;;;;;;;14.63;65.69;102067.72;5094117;28;20460;-60
2022/08/07 04:55:56;;;;;;;9.38;3.03;;;;;;;14.65;65.47;102071.06;5110817;28;20039;-61
2022/08/07 04:58:36;;;;;;;6.55;2.50;;;;;;;14.69;64.84;102064.44;5093677;28;20047;-61
2022/08/07 05:01:36;;;;;;;11.25;2.80;;;;;;;14.71;64.85;102059.78;5109922;28;20397;-61
2022/08/07 05:04:32;;;;;;;14.85;2.97;;;;;;;14.68;65.44;102062.75;5109315;28;20077;-61
2022/08/07 05:07:12;;;;;;;10.13;3.10;;;;;;;14.65;65.95;102060.38;5110562;28;20169;-60
2022/08/07 05:09:54;;;;;;;10.48;3.00;;;;;;;14.62;66.02;102065.19;5111107;28;20067;-61
2022/08/07 05:12:36;;;;;;;12.52;3.03;;;;;;;14.68;66.58;102075.25;5108923;28;20412;-61
2022/08/07 05:15:16;;;;;;;13.15;3.00;;;;;;;14.72;66.18;102074.00;5109660;28;20047;-61
2022/08/07 05:17:48;;;;;;;18.33;3.20;;;;;;;14.78;66.21;102070.72;5110626;28;20121;-61
2022/08/07 05:20:23;;;;;;;10.35;3.40;;;;;;;14.76;65.83;102076.19;5110340;28;20036;-61
2022/08/07 05:22:55;;;;;;;9.85;2.95;;;;;;;14.80;65.33;102078.59;5109170;28;20083;-61
2022/08/07 05:25:24;;;;;;;12.80;3.50;;;;;;;14.81;65.42;102080.25;5110431;28;20439;-61
2022/08/07 05:27:54;;;;;;;9.63;3.20;;;;;;;14.92;64.54;102080.91;5109374;28;20068;-60
2022/08/07 05:30:23;;;;;;;10.07;3.22;;;;;;;14.94;64.19;102078.91;5109773;28;20078;-60
2022/08/07 05:32:52;;;;;;;9.93;3.08;;;;;;;15.01;63.83;102072.94;5110088;28;20040;-61
2022/08/07 05:35:20;;;;;;;11.57;3.25;;;;;;;15.11;62.96;102076.41;5108740;28;20075;-60
2022/08/07 05:37:50;;;;;;;9.50;3.13;;;;;;;15.13;62.54;102074.44;5109154;28;20048;-61
2022/08/07 05:40:17;;;;;;;11.35;3.40;;;;;;;15.12;63.69;102078.09;5109940;28;20044;-60
2022/08/07 05:42:46;;;;;;;8.48;3.05;;;;;;;15.18;63.57;102080.16;5109712;28;20485;-60
2022/08/07 05:45:15;;;;;;;9.65;2.90;;;;;;;15.28;62.68;102094.31;5110005;28;20059;-61
2022/08/07 05:47:42;;;;;;;7.63;2.90;;;;;;;15.31;61.81;102095.81;5108386;28;20486;-61
2022/08/07 05:50:09;;;;;;;10.20;2.72;;;;;;;15.35;61.42;102098.06;5108236;28;20044;-60
2022/08/07 05:52:36;;;;;;;9.32;2.70;;;;;;;15.41;60.58;102101.09;5109137;28;20067;-61
2022/08/07 05:55:04;;;;;;;9.60;2.67;;;;;;;15.48;60.52;102105.69;5108654;28;20047;-61
2022/08/07 05:57:35;;;;;;;7.72;2.47;;;;;;;15.53;60.43;102098.06;5109546;28;20139;-61
2022/08/07 06:00:04;;;;;;;8.07;2.72;;;;;;;15.54;60.79;102105.06;5091712;28;20497;-61
2022/08/07 06:02:53;;;;;;;9.38;3.13;;;;;;;15.60;60.99;102108.97;5074365;28;20101;-61
2022/08/07 06:05:25;;;;;;;11.18;3.00;;;;;;;15.65;61.06;102103.16;5075248;28;20071;-62
2022/08/07 06:07:52;;;;;;;10.05;3.10;;;;;;;15.67;61.23;102101.16;5075806;28;20067;-61
2022/08/07 06:10:20;;;;;;;10.40;2.90;;;;;;;15.66;61.90;102100.34;5073984;28;20033;-61
2022/08/07 06:12:47;;;;;;;7.55;2.72;;;;;;;15.69;61.33;102104.53;5074617;28;20106;-61
2022/08/07 06:15:17;;;;;;;11.77;2.85;;;;;;;15.67;61.86;102106.50;5075544;28;20486;-61
2022/08/07 06:17:45;;;;;;;12.60;3.03;;;;;;;15.70;60.18;102111.56;5075450;28;20566;-61
2022/08/07 06:20:12;;;;;;;8.55;3.30;;;;;;;15.79;60.27;102107.13;5074470;28;20048;-61
2022/08/07 06:22:41;;;;;;;7.72;2.80;;;;;;;15.80;61.02;102114.19;5075275;28;20049;-61
2022/08/07 06:25:24;;;;;;;10.43;2.78;;;;;;;15.86;60.62;102106.38;5075299;28;20044;-61
2022/08/07 06:27:51;;;;;;;8.40;2.70;;;;;;;15.88;60.26;102111.53;5074084;28;20045;-61
2022/08/07 06:30:18;;;;;;;11.00;2.63;;;;;;;15.95;59.32;102109.09;5074368;28;20084;-61
2022/08/07 06:32:44;;;;;;;6.35;2.65;;;;;;;15.99;59.38;102100.63;5075167;28;20036;-61
2022/08/07 06:35:11;;;;;;;8.48;2.53;;;;;;;16.08;58.16;102106.84;5075122;28;20040;-61
2022/08/07 06:37:38;;;;;;;7.88;2.45;;;;;;;16.15;57.10;102104.38;5075118;28;20053;-61
2022/08/07 06:40:05;;;;;;;10.00;2.72;;;;;;;16.21;56.50;102103.75;5073587;28;20037;-62
2022/08/07 06:42:36;;;;;;;6.28;2.40;;;;;;;16.26;57.58;102109.47;5073768;28;20041;-61
2022/08/07 06:45:14;;;;;;;10.30;2.60;;;;;;;16.40;56.59;102103.53;5075020;28;20482;-61
2022/08/07 06:47:45;;;;;;;6.63;2.45;;;;;;;16.49;55.23;102102.56;5075193;28;20086;-61
2022/08/07 06:50:14;;;;;;;8.13;2.13;;;;;;;16.47;55.47;102096.53;5077375;28;20123;-61
2022/08/07 06:52:45;;;;;;;7.82;2.33;;;;;;;16.48;55.93;102094.69;5094574;28;20490;-61
2022/08/07 06:55:25;;;;;;;7.78;2.20;;;;;;;16.54;55.08;102094.06;5095479;28;20394;-61
2022/08/07 06:57:57;;;;;;;5.55;2.00;;;;;;;16.81;54.52;102093.00;5094002;28;20059;-61
2022/08/07 07:00:31;;;;;;;8.77;2.22;;;;;;;16.87;53.98;102095.03;5094949;28;20535;-61
2022/08/07 07:03:00;;;;;;;6.90;2.20;;;;;;;16.88;54.53;102095.88;5094656;28;20390;-61
2022/08/07 07:05:27;;;;;;;8.48;2.30;;;;;;;16.98;53.64;102098.44;5094394;28;20176;-61
2022/08/07 07:07:55;;;;;;;9.10;2.60;;;;;;;16.98;53.49;102095.75;5075203;28;20068;-61
2022/08/07 07:10:37;;;;;;;9.43;2.60;;;;;;;16.98;53.61;102093.91;5108868;28;20039;-61
2022/08/07 07:13:13;;;;;;;9.52;2.60;;;;;;;17.06;53.88;102098.44;5088822;28;20052;-61
2022/08/07 07:15:45;;;;;;;6.43;2.20;;;;;;;16.96;52.93;102097.78;5074507;28;20097;-61
2022/08/07 07:18:27;;;;;;;10.38;2.38;;;;;;;17.08;54.03;102097.28;5074661;28;20048;-62
2022/08/07 07:20:58;;;;;;;6.95;2.17;;;;;;;17.29;52.46;102089.78;5063979;28;20045;-61
2022/08/07 07:23:26;;;;;;;8.02;2.30;;;;;;;17.39;52.03;102093.13;5056769;28;20544;-61
2022/08/07 07:25:57;;;;;;;6.45;2.22;;;;;;;17.39;52.81;102091.31;5074327;28;20052;-61
2022/08/07 07:28:26;;;;;;;;;;;;;;;17.46;52.06;102089.66;5073493;28;20044;-61
2022/08/07 07:30:58;;;;;;;5.53;1.92;;;;;;;17.44;52.42;102094.34;5073717;28;19920;-61
2022/08/07 07:33:27;;;;;;;6.38;2.03;;;;;;;17.58;52.34;102087.44;5072908;28;20577;-61
2022/08/07 07:35:55;;;;;;;7.55;2.05;;;;;;;17.78;50.89;102085.25;5074121;28;20486;-61
2022/08/07 07:38:24;;;;;;;7.10;1.90;;;;;;;17.72;52.47;102085.94;5072607;28;20051;-62
2022/08/07 07:40:57;;;;;;;9.00;2.30;;;;;;;17.79;51.28;102078.03;5072745;28;20050;-62
2022/08/07 07:43:30;;;;;;;6.75;2.17;;;;;;;17.87;52.39;102083.44;5072324;28;20055;-61
2022/08/07 07:45:59;;;;;;;5.60;1.97;;;;;;;17.81;52.32;102081.44;5073896;28;20049;-62
2022/08/07 07:48:27;;;;;;;8.10;2.20;;;;;;;18.02;51.68;102087.09;5071955;28;20053;-62
2022/08/07 07:50:55;;;;;;;7.53;2.10;;;;;;;18.23;50.49;102083.06;5081967;28;20039;-61
2022/08/07 07:53:23;;;;;;;12.57;2.20;;;;;;;18.21;51.54;102077.84;5094138;28;20106;-61
2022/08/07 07:55:55;;;;;;;7.00;2.20;;;;;;;18.28;50.87;102077.16;5093539;28;20059;-61
2022/08/07 07:58:21;;;;;;;;;;;;;;;18.48;48.63;102075.75;5094227;28;20118;-61
2022/08/07 08:00:49;;;;;;;5.75;1.90;;;;;;;18.51;49.60;102079.94;5079809;28;19979;-61
2022/08/07 08:03:22;;;;;;;5.53;1.85;;;;;;;18.60;48.49;102070.81;5072744;28;20052;-62
2022/08/07 08:05:50;;;;;;;3.95;1.80;;;;;;;18.62;48.50;102071.47;5088334;28;20071;-60
2022/08/07 08:08:18;;;;;;;6.88;1.92;;;;;;;18.65;48.93;102064.94;5055691;28;20040;-61
2022/08/07 08:10:47;;;;;;;5.47;1.75;;;;;;;18.78;48.21;102070.56;5039368;28;20044;-61
2022/08/07 08:13:14;;;;;;;9.90;1.63;;;;;;;18.87;47.74;102068.72;5073354;28;20048;-62
2022/08/07 08:15:45;;;;;;;7.47;1.67;;;;;;;18.92;47.69;102066.34;5073262;28;20040;-62
2022/08/07 08:18:13;;;;;;;5.20;1.77;;;;;;;18.97;47.77;102066.63;5073558;28;20045;-61
2022/08/07 08:20:41;;;;;;;7.70;2.05;;;;;;;19.03;46.94;102063.22;5073113;28;20048;-60
2022/08/07 08:28:50;;;;;;;5.78;1.90;;;;;;;19.54;42.76;102060.00;5072191;28;20072;-60
2022/08/07 08:31:24;;;;;;;7.45;1.60;;;;;;;19.61;42.73;102060.94;5054458;28;20045;-60
2022/08/07 08:33:53;;;;;;;5.68;1.63;;;;;;;19.72;42.35;102052.41;5073055;28;20131;-60
2022/08/07 08:36:24;;;;;;;4.57;1.48;;;;;;;19.58;43.03;102053.22;5072995;28;20106;-62
2022/08/07 08:38:53;;;;;;;6.80;1.73;;;;;;;19.60;43.13;102053.88;5071977;28;20048;-62
2022/08/07 08:41:29;;;;;;;5.10;1.58;;;;;;;19.59;42.42;102054.06;5088682;28;20101;-61
2022/08/07 08:44:14;;;;;;;5.22;1.98;;;;;;;19.71;42.86;102047.22;5071701;28;20078;-62
2022/08/07 08:46:49;;;;;;;8.60;1.90;;;;;;;19.71;43.05;102042.66;5073306;28;20048;-62
2022/08/07 08:49:27;;;;;;;7.35;2.30;;;;;;;20.07;42.00;102055.47;5092506;28;20051;-62
2022/08/07 08:52:04;;;;;;;8.25;1.90;;;;;;;20.14;41.25;102051.00;5093280;28;20432;-61
2022/08/07 08:54:56;;;;;;;6.28;1.80;;;;;;;20.03;40.44;102056.84;5082903;28;20127;-61
2022/08/07 08:57:36;;;;;;;6.57;2.03;;;;;;;20.33;41.11;102056.84;5075691;28;20040;-62
2022/08/07 09:00:07;;;;;;;10.05;1.90;;;;;;;20.41;39.58;102043.28;5071167;28;20041;-49
2022/08/07 09:02:46;;;;;;;8.57;1.60;;;;;;;20.39;41.93;102041.78;5072362;28;20467;-48
2022/08/07 09:05:46;;;;;;;5.78;1.67;;;;;;;20.32;44.99;102041.72;5072300;28;20095;-50
2022/08/07 09:08:40;;;;;;;4.82;1.70;;;;;;;20.43;42.02;102037.69;5072232;28;20060;-51
2022/08/07 09:11:23;;;;;;;4.68;1.52;;;;;;;20.50;37.93;102034.06;5072836;28;20110;-51
2022/08/07 09:14:02;;;;;;;4.22;1.58;;;;;;;20.62;39.75;102033.59;5075579;28;20040;-51
2022/08/07 09:16:43;;;;;;;10.02;5.05;;;;;;;20.78;39.22;102032.56;5092158;28;20044;-49
2022/08/07 09:22:20;;;;;;;5.38;1.85;;;;;;;20.92;38.46;102034.38;5091103;27;20878;-48
2022/08/07 09:25:11;;;;;;;6.15;1.63;;;;;;;20.90;41.31;102023.75;5090110;28;20098;-46
2022/08/07 09:27:50;;;;;;;5.55;1.60;;;;;;;20.85;38.36;102030.75;5071909;28;20052;-53
2022/08/07 09:30:17;;;;;;;6.25;1.80;;;;;;;21.34;36.92;102021.03;5090000;28;20036;-48
2022/08/07 09:32:59;;;;;;;7.07;1.70;;;;;;;21.41;39.24;102024.63;5089345;28;20044;-47
2022/08/07 09:35:34;;;;;;;;;;;;;;;21.42;36.11;102021.75;5072953;28;20055;-49
2022/08/07 09:38:11;;;;;;;7.07;1.73;;;;;;;21.72;39.10;102021.59;5076298;28;19920;-50
2022/08/07 09:41:05;;;;;;;4.13;1.50;;;;;;;21.65;35.53;102023.41;5088610;28;20058;-50
2022/08/07 09:46:45;;;;;;;10.00;1.60;;;;;;;21.81;34.42;102023.13;5110498;27;20391;-57
2022/08/07 09:52:12;;;;;;;6.35;1.55;;;;;;;22.07;35.43;102018.06;5117349;27;20371;-60
2022/08/07 09:54:46;;;;;;;7.30;1.50;;;;;;;22.00;36.24;102004.53;5111621;27;20595;-59
2022/08/07 09:57:33;;;;;;;6.68;1.92;;;;;;;21.98;35.16;102012.81;5109927;28;20047;-58
2022/08/07 10:02:56;;;;;;;5.45;1.63;;;;;;;22.20;35.07;101999.22;5110514;27;20385;-58
2022/08/07 10:08:42;;;;;;;5.13;1.40;;;;;;;22.71;34.74;102004.19;5111034;27;20391;-59
2022/08/07 10:11:35;;;;;;;8.00;1.70;;;;;;;22.95;33.80;102004.66;5109734;28;20062;-59
2022/08/07 10:14:28;;;;;;;5.85;1.42;;;;;;;23.15;32.99;101999.31;5111037;28;20130;-59
2022/08/07 10:17:35;;;;;;;4.38;1.60;;;;;;;23.60;32.26;101985.97;5110561;28;20040;-61
2022/08/07 10:20:14;;;;;;;3.80;1.48;;;;;;;23.95;32.26;101986.53;5110528;28;20040;-59
2022/08/07 10:25:50;;;;;;;6.22;1.60;;;;;;;24.05;31.72;101991.50;5111020;27;20380;-59
2022/08/07 10:28:56;;;;;;;5.57;1.40;;;;;;;24.24;32.04;101983.50;5110830;28;20059;-59
2022/08/07 10:34:40;;;;;;;6.20;1.40;;;;;;;24.80;32.08;101988.25;5069720;28;20380;-59
2022/08/07 10:37:46;;;;;;;3.97;1.33;;;;;;;24.80;30.74;101980.09;5070483;28;20041;-59
2022/08/07 10:40:20;;;;;;;6.68;1.40;;;;;;;24.69;29.87;101975.38;5070029;28;20071;-60
2022/08/07 10:43:17;;;;;;;4.72;1.45;;;;;;;24.52;30.52;101975.00;5070193;28;20082;-60
2022/08/07 10:45:48;;;;;;;4.32;1.38;;;;;;;24.11;30.17;101976.25;5070152;28;20053;-60
2022/08/07 10:51:17;;;;;;;5.25;1.23;;;;;;;24.20;31.04;101966.84;5110810;27;20381;-59
2022/08/07 10:54:14;;;;;;;8.80;1.58;;;;;;;24.17;30.64;101958.31;5093591;28;20044;-60
2022/08/07 11:02:17;;;;;;;3.22;1.13;;;;;;;24.21;30.46;101957.66;5070453;28;20048;-59
2022/08/07 11:05:05;;;;;;;5.07;1.75;;;;;;;24.30;30.05;101950.09;5069691;28;20513;-59
2022/08/07 11:10:30;;;;;;;4.82;1.15;;;;;;;24.51;29.83;101946.25;5112410;27;20753;-60
2022/08/07 11:13:06;;;;;;;3.47;1.33;;;;;;;24.69;30.12;101934.69;5109799;28;20073;-61
2022/08/07 11:15:37;;;;;;;3.80;1.27;;;;;;;24.96;29.69;101927.19;5109659;28;20055;-60
2022/08/07 11:18:28;;;;;;;2.72;1.30;;;;;;;25.10;28.66;101922.44;5111071;28;20040;-60
2022/08/07 11:21:03;;;;;;;4.28;1.30;;;;;;;24.85;28.60;101917.00;5110996;28;20048;-61
2022/08/07 11:23:58;;;;;;;3.08;1.23;;;;;;;24.50;28.85;101923.72;5109916;28;20044;-61
2022/08/07 11:26:32;;;;;;;1.83;1.00;;;;;;;24.65;29.45;101920.72;5110779;28;20382;-61
2022/08/07 11:29:06;;;;;;;5.60;1.25;;;;;;;24.58;29.57;101913.69;5109901;28;20051;-61
2022/08/07 11:31:42;;;;;;;7.97;1.42;;;;;;;24.83;29.28;101910.97;5108256;28;20378;-61
2022/08/07 11:34:37;;;;;;;4.25;1.33;;;;;;;24.94;28.80;101914.84;5110785;28;20158;-48
2022/08/07 11:40:12;;;;;;;3.30;1.50;;;;;;;25.16;28.30;101905.28;5111740;27;20376;-48
2022/08/07 11:43:19;;;;;;;4.00;1.30;;;;;;;24.70;28.28;101911.91;5089361;28;20094;-47
2022/08/07 11:46:09;;;;;;;3.72;1.23;;;;;;;24.74;29.40;101906.88;5093908;28;20044;-46
2022/08/07 11:49:17;;;;;;;4.25;1.33;;;;;;;24.93;28.99;101897.75;5095706;28;20420;-49
2022/08/07 11:52:23;;;;;;;4.60;1.20;;;;;;;25.09;28.74;101897.19;5105775;28;20421;-60
2022/08/07 11:55:30;;;;;;;3.60;1.20;;;;;;;25.21;28.37;101899.16;5110314;28;20051;-61
2022/08/07 11:58:12;;;;;;;7.63;1.48;;;;;;;25.48;29.32;101897.84;5110213;28;20086;-52
2022/08/07 12:00:57;;;;;;;4.88;1.35;;;;;;;25.35;28.59;101886.31;5109892;28;20155;-50
2022/08/07 12:03:36;;;;;;;3.03;1.17;;;;;;;25.37;27.29;101886.94;5108432;28;20044;-55
2022/08/07 12:06:44;;;;;;;3.50;1.40;;;;;;;25.45;27.66;101886.63;5098091;28;20101;-63
2022/08/07 12:09:21;;;;;;;3.88;1.02;;;;;;;25.24;26.68;101893.31;5125866;28;20068;-62
2022/08/07 12:12:11;;;;;;;4.05;1.35;;;;;;;25.63;26.75;101902.09;5109458;28;20039;-62
2022/08/07 12:14:47;;;;;;;4.63;1.30;;;;;;;25.58;27.12;101899.25;5109155;28;20050;-62
2022/08/07 12:17:19;;;;;;;8.73;1.27;;;;;;;25.47;26.39;101893.50;5111186;28;20043;-63
2022/08/07 12:19:56;;;;;;;7.50;1.30;;;;;;;25.67;27.25;101893.28;5102004;28;20404;-50
2022/08/07 12:22:38;;;;;;;4.35;1.20;;;;;;;25.56;26.38;101891.31;5107326;28;20051;-53
2022/08/07 12:25:55;;;;;;;3.20;1.35;;;;;;;25.75;26.64;101897.56;5113811;28;20047;-50
2022/08/07 12:28:19;;;;;;;2.15;1.17;;;;;;;25.67;26.50;101879.69;5108508;28;20052;-53
2022/08/07 12:30:51;;;;;;;7.63;1.50;;;;;;;25.72;26.46;101878.16;5108108;28;20078;-52
2022/08/07 12:33:24;;;;;;;102.35;17.15;;;;;;;25.90;28.48;101880.03;5109813;28;20040;-54
2022/08/07 12:35:53;;;;;;;26.58;5.22;;;;;;;26.00;27.91;101874.91;5110960;28;20538;-52
2022/08/07 12:38:22;;;;;;;5.50;1.55;;;;;;;25.96;26.25;101866.41;5108811;28;20055;-51